createdAt,value
2022-08-22T00:00:47.092Z,38.31
2022-08-22T00:01:51.769Z,48.67
2022-08-22T00:02:42.671Z,24.44
2022-08-22T00:02:54.356Z,26.60
2022-08-22T00:03:03.867Z,44.74
2022-08-22T00:03:07.844Z,28.71
2022-08-22T00:03:17.593Z,53.12
2022-08-22T00:03:59.608Z,59.41
2022-08-22T00:05:01.867Z,53.84
2022-08-22T00:06:04.023Z,49.75
2022-08-22T00:07:05.876Z,51.40
2022-08-22T00:08:08.031Z,49.35
2022-08-22T00:09:09.885Z,61.89
2022-08-22T00:10:13.070Z,47.94
2022-08-22T00:11:16.753Z,48.00
2022-08-22T00:12:18.605Z,55.55
2022-08-22T00:13:20.453Z,58.77
2022-08-22T00:14:22.411Z,54.33
2022-08-22T00:15:42.170Z,51.41
2022-08-22T00:16:28.324Z,61.74
2022-08-22T00:17:30.190Z,45.90
2022-08-22T00:18:32.030Z,60.73
2022-08-22T00:19:33.982Z,61.30
2022-08-22T00:20:36.376Z,52.19
2022-08-22T00:21:38.219Z,44.21
2022-08-22T00:22:41.920Z,55.28
2022-08-22T00:23:43.776Z,60.34
2022-08-22T00:24:45.719Z,58.08
2022-08-22T00:25:47.679Z,59.53
2022-08-22T00:26:49.730Z,58.34
2022-08-22T00:27:51.681Z,58.33
2022-08-22T00:28:53.633Z,60.51
2022-08-22T00:29:55.481Z,55.26
2022-08-22T00:30:57.743Z,57.61
2022-08-22T00:31:59.695Z,55.50
2022-08-22T00:33:01.650Z,53.70
2022-08-22T00:34:03.601Z,60.69
2022-08-22T00:35:05.553Z,57.54
2022-08-22T00:36:08.429Z,49.01
2022-08-22T00:37:10.284Z,58.69
2022-08-22T00:38:12.433Z,66.34
2022-08-22T00:39:14.287Z,66.64
2022-08-22T00:40:17.070Z,55.72
2022-08-22T00:41:19.422Z,51.03
2022-08-22T00:42:29.393Z,55.23
2022-08-22T00:43:25.078Z,62.92
2022-08-22T00:44:27.015Z,51.65
2022-08-22T00:45:28.971Z,55.13
2022-08-22T00:46:31.844Z,55.49
2022-08-22T00:47:33.797Z,61.65
2022-08-22T00:48:35.747Z,59.35
2022-08-22T00:49:38.006Z,52.83
2022-08-22T00:50:39.961Z,56.15
2022-08-22T00:51:41.913Z,56.18
2022-08-22T00:52:45.094Z,49.29
2022-08-22T00:53:47.044Z,58.28
2022-08-22T00:54:48.996Z,57.68
2022-08-22T00:55:50.848Z,60.67
2022-08-22T00:56:53.005Z,54.17
2022-08-22T00:57:54.847Z,53.62
2022-08-22T00:58:56.707Z,55.54
2022-08-22T00:59:58.656Z,54.61
2022-08-22T01:01:00.750Z,67.15
2022-08-22T01:02:02.767Z,61.25
2022-08-22T01:03:04.924Z,66.33
2022-08-22T01:04:06.799Z,48.59
2022-08-22T01:05:08.726Z,60.65
2022-08-22T01:06:10.988Z,62.21
2022-08-22T01:07:12.943Z,52.73
2022-08-22T01:08:14.790Z,64.54
2022-08-22T01:09:16.744Z,70.92
2022-08-22T01:10:19.717Z,61.92
2022-08-22T01:11:21.568Z,64.61
2022-08-22T01:12:23.521Z,58.52
2022-08-22T01:13:25.377Z,65.47
2022-08-22T01:14:34.646Z,60.40
2022-08-22T01:15:31.016Z,56.12
2022-08-22T01:16:33.177Z,60.10
2022-08-22T01:17:35.128Z,68.53
2022-08-22T01:18:37.081Z,64.99
2022-08-22T01:19:39.028Z,55.08
2022-08-22T01:20:41.088Z,66.20
2022-08-22T01:21:43.244Z,73.51
2022-08-22T01:22:45.197Z,71.31
2022-08-22T01:23:47.150Z,72.51
2022-08-22T01:24:49.002Z,66.06
2022-08-22T01:25:51.361Z,59.89
2022-08-22T01:26:53.417Z,66.40
2022-08-22T01:27:55.426Z,65.54
2022-08-22T01:28:57.321Z,57.57
2022-08-22T01:29:59.272Z,65.76
2022-08-22T01:31:01.765Z,68.39
2022-08-22T01:32:03.700Z,62.54
2022-08-22T01:33:05.653Z,60.75
2022-08-22T01:34:12.748Z,76.11
2022-08-22T01:35:11.404Z,74.68
2022-08-22T01:36:14.685Z,69.59
2022-08-22T01:37:16.637Z,71.67
2022-08-22T01:38:18.591Z,64.51
2022-08-22T01:39:20.548Z,54.58
2022-08-22T01:40:22.830Z,73.21
2022-08-22T01:41:25.882Z,71.31
2022-08-22T01:42:28.242Z,63.50
2022-08-22T01:43:59.389Z,68.56
2022-08-22T01:44:33.888Z,68.07
2022-08-22T01:45:35.768Z,69.74
2022-08-22T01:46:37.855Z,69.09
2022-08-22T01:47:39.857Z,71.12
2022-08-22T01:48:41.802Z,67.40
2022-08-22T01:49:43.752Z,55.58
2022-08-22T01:50:45.915Z,67.01
2022-08-22T01:51:47.862Z,64.68
2022-08-22T01:52:49.816Z,57.69
2022-08-22T01:53:51.768Z,70.31
2022-08-22T01:54:53.723Z,61.96
2022-08-22T01:55:55.668Z,78.27
2022-08-22T01:56:57.832Z,61.29
2022-08-22T01:57:59.947Z,68.49
2022-08-22T01:59:02.860Z,73.98
2022-08-22T02:00:05.335Z,68.55
2022-08-22T02:01:07.320Z,68.07
2022-08-22T02:02:09.332Z,76.82
2022-08-22T02:03:11.496Z,71.55
2022-08-22T02:04:13.441Z,73.64
2022-08-22T02:05:15.394Z,59.79
2022-08-22T02:06:17.865Z,68.81
2022-08-22T02:07:19.810Z,73.19
2022-08-22T02:08:23.606Z,64.76
2022-08-22T02:09:25.557Z,68.64
2022-08-22T02:10:28.434Z,72.29
2022-08-22T02:11:30.391Z,68.15
2022-08-22T02:12:32.339Z,67.79
2022-08-22T02:13:34.293Z,64.65
2022-08-22T02:14:36.244Z,73.32
2022-08-22T02:15:38.192Z,67.42
2022-08-22T02:16:40.355Z,70.76
2022-08-22T02:17:42.306Z,66.57
2022-08-22T02:18:44.256Z,81.71
2022-08-22T02:19:46.216Z,80.66
2022-08-22T02:20:48.368Z,63.99
2022-08-22T02:21:50.319Z,71.38
2022-08-22T02:22:54.013Z,75.96
2022-08-22T02:23:56.151Z,83.98
2022-08-22T02:24:58.533Z,68.52
2022-08-22T02:26:00.485Z,75.64
2022-08-22T02:27:02.444Z,67.47
2022-08-22T02:28:04.310Z,70.91
2022-08-22T02:29:06.174Z,74.83
2022-08-22T02:30:08.504Z,72.82
2022-08-22T02:31:10.451Z,67.05
2022-08-22T02:32:14.252Z,80.72
2022-08-22T02:33:16.200Z,79.77
2022-08-22T02:34:18.159Z,71.29
2022-08-22T02:35:20.105Z,75.88
2022-08-22T02:36:22.569Z,72.21
2022-08-22T02:37:24.529Z,79.12
2022-08-22T02:38:26.476Z,72.86
2022-08-22T02:39:28.427Z,74.94
2022-08-22T02:40:31.003Z,75.92
2022-08-22T02:41:32.947Z,72.21
2022-08-22T02:42:35.414Z,82.13
2022-08-22T02:43:37.298Z,83.43
2022-08-22T02:44:39.215Z,86.45
2022-08-22T02:45:41.167Z,71.11
2022-08-22T02:46:43.330Z,80.02
2022-08-22T02:47:45.277Z,76.54
2022-08-22T02:48:47.228Z,72.84
2022-08-22T02:49:49.183Z,85.73
2022-08-22T02:50:51.339Z,80.25
2022-08-22T02:51:54.623Z,74.45
2022-08-22T02:52:56.573Z,74.73
2022-08-22T02:53:58.526Z,71.05
2022-08-22T02:55:00.396Z,70.03
2022-08-22T02:56:02.436Z,82.41
2022-08-22T02:57:04.383Z,75.14
2022-08-22T02:58:06.747Z,80.03
2022-08-22T02:59:08.702Z,82.66
2022-08-22T03:00:30.696Z,75.39
2022-08-22T03:01:14.878Z,84.10
2022-08-22T03:02:16.810Z,73.33
2022-08-22T03:03:18.872Z,80.95
2022-08-22T03:04:20.816Z,69.36
2022-08-22T03:05:22.975Z,72.53
2022-08-22T03:06:26.257Z,85.15
2022-08-22T03:07:28.218Z,71.11
2022-08-22T03:08:30.162Z,77.14
2022-08-22T03:09:32.028Z,84.26
2022-08-22T03:10:34.066Z,76.14
2022-08-22T03:11:36.021Z,73.35
2022-08-22T03:12:37.979Z,75.28
2022-08-22T03:13:39.925Z,73.20
2022-08-22T03:14:41.876Z,86.44
2022-08-22T03:15:49.341Z,78.43
2022-08-22T03:16:47.831Z,78.87
2022-08-22T03:17:49.783Z,78.19
2022-08-22T03:18:51.734Z,77.79
2022-08-22T03:19:53.698Z,78.40
2022-08-22T03:20:55.843Z,82.76
2022-08-22T03:21:57.798Z,77.07
2022-08-22T03:23:00.079Z,80.88
2022-08-22T03:24:02.006Z,66.91
2022-08-22T03:25:03.962Z,87.29
2022-08-22T03:26:07.692Z,77.53
2022-08-22T03:27:09.915Z,78.36
2022-08-22T03:28:11.868Z,72.46
2022-08-22T03:29:13.819Z,77.25
2022-08-22T03:30:15.983Z,82.07
2022-08-22T03:31:17.929Z,77.78
2022-08-22T03:32:19.882Z,60.43
2022-08-22T03:33:21.840Z,72.37
2022-08-22T03:34:23.788Z,73.91
2022-08-22T03:35:25.739Z,82.87
2022-08-22T03:36:28.208Z,74.88
2022-08-22T03:37:30.155Z,77.60
2022-08-22T03:38:32.107Z,69.76
2022-08-22T03:39:34.057Z,72.41
2022-08-22T03:40:36.219Z,72.25
2022-08-22T03:41:41.344Z,80.01
2022-08-22T03:42:46.724Z,84.01
2022-08-22T03:43:48.618Z,70.73
2022-08-22T03:44:50.468Z,78.28
2022-08-22T03:45:52.420Z,75.43
2022-08-22T03:46:54.489Z,72.15
2022-08-22T03:47:56.443Z,61.71
2022-08-22T03:48:58.380Z,68.91
2022-08-22T03:50:00.154Z,59.51
2022-08-22T03:51:02.181Z,59.98
2022-08-22T03:52:04.135Z,83.41
2022-08-22T03:53:06.087Z,75.05
2022-08-22T03:54:09.798Z,79.66
2022-08-22T03:55:11.733Z,73.07
2022-08-22T03:56:14.407Z,66.06
2022-08-22T03:57:16.260Z,68.43
2022-08-22T03:58:27.614Z,76.77
2022-08-22T03:59:21.904Z,70.73
2022-08-22T04:00:26.048Z,69.51
2022-08-22T04:01:28.059Z,66.69
2022-08-22T04:02:43.065Z,70.93
2022-08-22T04:03:33.808Z,75.89
2022-08-22T04:04:35.757Z,75.66
2022-08-22T04:05:37.814Z,79.41
2022-08-22T04:06:41.002Z,66.98
2022-08-22T04:07:43.049Z,65.37
2022-08-22T04:08:46.843Z,75.39
2022-08-22T04:09:49.312Z,65.39
2022-08-22T04:10:53.207Z,64.33
2022-08-22T04:11:55.059Z,77.13
2022-08-22T04:12:57.009Z,55.94
2022-08-22T04:13:58.861Z,67.61
2022-08-22T04:15:00.820Z,64.80
2022-08-22T04:16:02.867Z,61.14
2022-08-22T04:17:04.825Z,60.26
2022-08-22T04:18:06.776Z,80.02
2022-08-22T04:19:10.368Z,63.98
2022-08-22T04:20:12.828Z,62.03
2022-08-22T04:21:16.530Z,69.55
2022-08-22T04:22:18.373Z,61.68
2022-08-22T04:23:20.133Z,54.84
2022-08-22T04:24:22.890Z,76.05
2022-08-22T04:25:24.761Z,57.18
2022-08-22T04:26:26.793Z,64.00
2022-08-22T04:27:28.645Z,60.41
2022-08-22T04:28:30.597Z,60.87
2022-08-22T04:29:32.549Z,59.23
2022-08-22T04:30:34.604Z,64.18
2022-08-22T04:31:36.566Z,70.91
2022-08-22T04:32:38.513Z,59.02
2022-08-22T04:33:40.461Z,58.96
2022-08-22T04:34:42.424Z,61.61
2022-08-22T04:35:44.369Z,61.80
2022-08-22T04:36:46.525Z,55.19
2022-08-22T04:37:48.376Z,58.85
2022-08-22T04:38:50.329Z,53.89
2022-08-22T04:39:52.318Z,63.39
2022-08-22T04:40:54.540Z,53.72
2022-08-22T04:42:00.740Z,65.64
2022-08-22T04:43:00.185Z,61.32
2022-08-22T04:44:02.855Z,54.91
2022-08-22T04:45:04.824Z,53.19
2022-08-22T04:46:07.475Z,63.51
2022-08-22T04:47:09.432Z,61.14
2022-08-22T04:48:11.278Z,61.56
2022-08-22T04:49:13.230Z,59.43
2022-08-22T04:50:15.387Z,53.31
2022-08-22T04:51:17.360Z,54.59
2022-08-22T04:52:19.394Z,62.12
2022-08-22T04:53:21.354Z,61.48
2022-08-22T04:54:23.298Z,50.44
2022-08-22T04:55:25.252Z,47.27
2022-08-22T04:56:27.616Z,53.34
2022-08-22T04:57:29.574Z,55.92
2022-08-22T04:58:31.518Z,54.89
2022-08-22T04:59:33.586Z,48.99
2022-08-22T05:00:35.839Z,54.71
2022-08-22T05:01:37.748Z,53.61
2022-08-22T05:02:39.854Z,60.33
2022-08-22T05:03:44.824Z,51.29
2022-08-22T05:04:45.592Z,63.72
2022-08-22T05:05:47.540Z,57.08
2022-08-22T05:06:49.705Z,46.93
2022-08-22T05:07:51.652Z,60.02
2022-08-22T05:08:53.752Z,48.13
2022-08-22T05:09:56.175Z,49.60
2022-08-22T05:10:58.328Z,56.74
2022-08-22T05:12:00.235Z,55.77
2022-08-22T05:13:02.440Z,48.33
2022-08-22T05:14:04.389Z,51.07
2022-08-22T05:15:06.341Z,47.17
2022-08-22T05:16:10.960Z,44.90
2022-08-22T05:17:12.807Z,44.75
2022-08-22T05:18:16.500Z,53.95
2022-08-22T05:19:24.980Z,47.18
2022-08-22T05:20:22.760Z,44.01
2022-08-22T05:21:27.032Z,47.81
2022-08-22T05:22:28.714Z,46.52
2022-08-22T05:23:30.576Z,49.25
2022-08-22T05:24:32.515Z,56.67
2022-08-22T05:25:34.703Z,43.99
2022-08-22T05:26:38.572Z,43.74
2022-08-22T05:27:40.523Z,43.40
2022-08-22T05:28:42.478Z,48.29
2022-08-22T05:29:44.427Z,41.91
2022-08-22T05:30:46.388Z,49.39
2022-08-22T05:31:48.342Z,48.71
2022-08-22T05:32:50.307Z,46.67
2022-08-22T05:33:52.243Z,43.09
2022-08-22T05:34:54.193Z,52.05
2022-08-22T05:35:58.047Z,64.15
2022-08-22T05:37:00.046Z,42.76
2022-08-22T05:38:01.995Z,50.95
2022-08-22T05:39:03.948Z,43.33
2022-08-22T05:40:06.366Z,49.20
2022-08-22T05:41:08.364Z,53.93
2022-08-22T05:42:10.317Z,38.20
2022-08-22T05:43:12.181Z,48.41
2022-08-22T05:44:14.107Z,37.79
2022-08-22T05:45:15.986Z,47.52
2022-08-22T05:46:18.653Z,43.68
2022-08-22T05:47:20.645Z,44.61
2022-08-22T05:48:22.451Z,41.29
2022-08-22T05:49:24.398Z,42.51
2022-08-22T05:50:26.756Z,34.02
2022-08-22T05:51:28.717Z,42.84
2022-08-22T05:52:30.667Z,46.13
2022-08-22T05:53:33.845Z,40.98
2022-08-22T05:54:35.796Z,44.80
2022-08-22T05:55:37.752Z,36.37
2022-08-22T05:56:40.018Z,38.83
2022-08-22T05:57:41.976Z,41.00
2022-08-22T05:58:43.929Z,41.87
2022-08-22T05:59:45.881Z,39.70
2022-08-22T06:00:48.034Z,36.64
2022-08-22T06:01:50.160Z,36.73
2022-08-22T06:02:52.348Z,35.31
2022-08-22T06:03:54.302Z,40.23
2022-08-22T06:04:56.462Z,37.37
2022-08-22T06:05:59.544Z,48.00
2022-08-22T06:07:01.796Z,37.21
2022-08-22T06:08:03.752Z,31.58
2022-08-22T06:09:05.709Z,32.09
2022-08-22T06:10:08.167Z,38.90
2022-08-22T06:11:10.032Z,43.35
2022-08-22T06:12:21.633Z,35.43
2022-08-22T06:13:15.717Z,46.39
2022-08-22T06:14:19.390Z,43.71
2022-08-22T06:15:23.153Z,44.91
2022-08-22T06:16:25.944Z,30.14
2022-08-22T06:17:28.026Z,38.85
2022-08-22T06:18:29.933Z,31.25
2022-08-22T06:19:31.883Z,36.57
2022-08-22T06:20:34.041Z,53.57
2022-08-22T06:21:39.381Z,35.21
2022-08-22T06:22:39.787Z,37.96
2022-08-22T06:23:41.947Z,35.19
2022-08-22T06:24:43.898Z,41.30
2022-08-22T06:25:45.848Z,43.31
2022-08-22T06:26:48.961Z,36.73
2022-08-22T06:27:51.094Z,37.71
2022-08-22T06:28:55.300Z,32.65
2022-08-22T06:29:56.835Z,36.74
2022-08-22T06:30:58.990Z,35.36
2022-08-22T06:32:00.956Z,30.62
2022-08-22T06:33:02.819Z,31.51
2022-08-22T06:34:05.259Z,39.16
2022-08-22T06:35:07.223Z,37.54
2022-08-22T06:36:09.983Z,35.96
2022-08-22T06:37:11.937Z,28.79
2022-08-22T06:38:13.902Z,32.26
2022-08-22T06:39:15.840Z,34.38
2022-08-22T06:40:18.385Z,38.14
2022-08-22T06:41:20.567Z,34.95
2022-08-22T06:42:22.622Z,31.96
2022-08-22T06:43:24.672Z,32.71
2022-08-22T06:44:26.625Z,37.53
2022-08-22T06:45:28.580Z,28.71
2022-08-22T06:46:30.919Z,30.29
2022-08-22T06:47:32.895Z,35.47
2022-08-22T06:48:34.845Z,33.99
2022-08-22T06:49:36.801Z,34.14
2022-08-22T06:50:38.963Z,29.87
2022-08-22T06:51:40.905Z,32.19
2022-08-22T06:52:42.869Z,34.96
2022-08-22T06:53:49.835Z,32.33
2022-08-22T06:54:48.617Z,32.28
2022-08-22T06:55:50.564Z,34.24
2022-08-22T06:56:53.040Z,35.71
2022-08-22T06:57:55.046Z,32.20
2022-08-22T06:58:56.974Z,28.89
2022-08-22T06:59:59.005Z,37.41
2022-08-22T07:01:11.246Z,31.11
2022-08-22T07:02:05.987Z,31.49
2022-08-22T07:03:07.927Z,34.23
2022-08-22T07:04:09.878Z,22.40
2022-08-22T07:05:11.821Z,34.36
2022-08-22T07:06:15.625Z,27.75
2022-08-22T07:07:17.570Z,29.23
2022-08-22T07:08:19.519Z,41.32
2022-08-22T07:09:21.476Z,30.57
2022-08-22T07:10:23.745Z,36.09
2022-08-22T07:11:26.027Z,29.63
2022-08-22T07:12:28.149Z,37.26
2022-08-22T07:13:30.114Z,41.39
2022-08-22T07:14:32.055Z,32.27
2022-08-22T07:15:34.014Z,30.34
2022-08-22T07:16:36.174Z,29.18
2022-08-22T07:17:40.663Z,32.45
2022-08-22T07:18:41.912Z,25.75
2022-08-22T07:19:43.865Z,28.41
2022-08-22T07:20:46.737Z,32.07
2022-08-22T07:21:48.800Z,29.14
2022-08-22T07:22:54.028Z,31.29
2022-08-22T07:23:55.573Z,26.26
2022-08-22T07:24:57.509Z,25.73
2022-08-22T07:25:59.460Z,33.67
2022-08-22T07:27:01.530Z,32.40
2022-08-22T07:28:05.401Z,27.39
2022-08-22T07:29:11.528Z,34.73
2022-08-22T07:30:13.031Z,30.92
2022-08-22T07:31:15.164Z,27.72
2022-08-22T07:32:18.856Z,35.89
2022-08-22T07:33:26.253Z,33.57
2022-08-22T07:35:53.140Z,28.49
2022-08-22T07:36:49.812Z,29.61
2022-08-22T07:37:51.761Z,31.60
2022-08-22T07:38:53.626Z,27.11
2022-08-22T07:39:55.519Z,34.38
2022-08-22T07:40:57.618Z,35.26
2022-08-22T07:41:59.696Z,28.31
2022-08-22T07:43:01.561Z,34.51
2022-08-22T07:44:03.408Z,35.17
2022-08-22T07:45:05.255Z,33.57
2022-08-22T07:46:07.825Z,28.94
2022-08-22T07:47:10.124Z,34.25
2022-08-22T07:48:12.183Z,27.95
2022-08-22T07:49:14.067Z,26.29
2022-08-22T07:50:17.555Z,26.99
2022-08-22T07:51:19.413Z,35.81
2022-08-22T07:52:21.359Z,30.84
2022-08-22T07:53:23.505Z,34.32
2022-08-22T07:54:27.226Z,24.46
2022-08-22T07:55:29.165Z,32.94
2022-08-22T07:56:31.522Z,24.18
2022-08-22T07:57:33.466Z,30.70
2022-08-22T07:58:35.435Z,28.41
2022-08-22T07:59:37.275Z,26.82
2022-08-22T08:00:39.633Z,24.45
2022-08-22T08:01:41.516Z,28.21
2022-08-22T08:02:43.465Z,26.49
2022-08-22T08:03:45.311Z,26.45
2022-08-22T08:04:47.227Z,25.58
2022-08-22T08:05:49.414Z,25.83
2022-08-22T08:06:51.453Z,27.07
2022-08-22T08:07:53.436Z,26.50
2022-08-22T08:08:55.466Z,27.46
2022-08-22T08:09:57.428Z,27.26
2022-08-22T08:10:59.680Z,25.12
2022-08-22T08:12:01.633Z,27.41
2022-08-22T08:13:03.589Z,27.50
2022-08-22T08:14:05.543Z,33.50
2022-08-22T08:15:07.489Z,41.78
2022-08-22T08:16:10.267Z,37.70
2022-08-22T08:17:12.217Z,27.51
2022-08-22T08:18:14.173Z,22.40
2022-08-22T08:19:16.123Z,22.73
2022-08-22T08:20:19.402Z,24.47
2022-08-22T08:21:23.105Z,21.31
2022-08-22T08:22:25.048Z,28.67
2022-08-22T08:23:27.110Z,28.08
2022-08-22T08:24:29.056Z,25.14
2022-08-22T08:25:32.866Z,33.65
2022-08-22T08:26:35.521Z,29.26
2022-08-22T08:27:37.477Z,30.23
2022-08-22T08:28:39.423Z,22.95
2022-08-22T08:29:41.318Z,28.02
2022-08-22T08:30:43.324Z,26.89
2022-08-22T08:31:45.287Z,31.88
2022-08-22T08:32:47.232Z,20.11
2022-08-22T08:33:49.185Z,26.15
2022-08-22T08:34:51.182Z,24.33
2022-08-22T08:36:02.504Z,32.28
2022-08-22T08:36:57.298Z,31.59
2022-08-22T08:37:59.438Z,30.33
2022-08-22T08:39:01.528Z,24.23
2022-08-22T08:40:03.623Z,27.50
2022-08-22T08:41:05.622Z,30.20
2022-08-22T08:42:07.773Z,34.04
2022-08-22T08:43:10.640Z,23.12
2022-08-22T08:44:13.010Z,32.24
2022-08-22T08:45:14.969Z,30.65
2022-08-22T08:46:17.882Z,32.08
2022-08-22T08:47:19.791Z,31.37
2022-08-22T08:48:23.390Z,38.40
2022-08-22T08:49:25.339Z,23.86
2022-08-22T08:50:28.210Z,28.80
2022-08-22T08:51:30.573Z,36.81
2022-08-22T08:52:32.525Z,27.71
2022-08-22T08:53:34.475Z,29.95
2022-08-22T08:54:36.441Z,25.73
2022-08-22T08:55:38.384Z,23.46
2022-08-22T08:56:42.800Z,27.05
2022-08-22T08:57:44.955Z,32.55
2022-08-22T08:58:46.900Z,30.55
2022-08-22T08:59:50.700Z,26.79
2022-08-22T09:00:52.892Z,35.48
2022-08-22T09:01:55.323Z,24.04
2022-08-22T09:02:59.530Z,23.18
2022-08-22T09:04:01.475Z,20.68
2022-08-22T09:05:03.526Z,26.58
2022-08-22T09:06:07.638Z,32.18
2022-08-22T09:07:10.016Z,32.08
2022-08-22T09:08:11.999Z,32.07
2022-08-22T09:09:13.906Z,32.59
2022-08-22T09:10:18.827Z,28.59
2022-08-22T09:11:28.289Z,28.53
2022-08-22T09:12:24.784Z,26.84
2022-08-22T09:13:26.638Z,29.97
2022-08-22T09:14:28.519Z,25.88
2022-08-22T09:15:30.507Z,26.40
2022-08-22T09:16:34.299Z,26.74
2022-08-22T09:17:37.492Z,24.18
2022-08-22T09:18:39.358Z,40.16
2022-08-22T09:19:41.225Z,34.47
2022-08-22T09:20:43.263Z,32.33
2022-08-22T09:21:45.147Z,29.83
2022-08-22T09:22:50.520Z,28.33
2022-08-22T09:23:53.277Z,30.76
2022-08-22T09:24:54.658Z,23.73
2022-08-22T09:25:56.877Z,27.92
2022-08-22T09:26:59.356Z,25.06
2022-08-22T09:28:02.648Z,26.16
2022-08-22T09:29:04.521Z,27.17
2022-08-22T09:30:07.521Z,27.29
2022-08-22T09:31:18.708Z,29.69
2022-08-22T09:32:14.985Z,43.58
2022-08-22T09:33:18.678Z,29.15
2022-08-22T09:34:23.885Z,24.22
2022-08-22T09:35:24.421Z,25.14
2022-08-22T09:36:26.840Z,27.14
2022-08-22T09:37:28.753Z,25.71
2022-08-22T09:38:30.793Z,29.33
2022-08-22T09:39:32.694Z,22.85
2022-08-22T09:40:36.543Z,28.84
2022-08-22T09:41:39.426Z,24.92
2022-08-22T09:42:44.808Z,31.72
2022-08-22T09:43:48.633Z,30.56
2022-08-22T09:44:49.218Z,25.30
2022-08-22T09:45:51.119Z,21.37
2022-08-22T09:46:53.287Z,21.89
2022-08-22T09:47:57.200Z,26.75
2022-08-22T09:48:59.030Z,24.39
2022-08-22T09:50:00.904Z,27.66
2022-08-22T09:51:28.811Z,22.66
2022-08-22T09:52:15.246Z,21.57
2022-08-22T09:53:10.420Z,29.78
2022-08-22T09:54:12.374Z,28.55
2022-08-22T09:55:16.233Z,23.55
2022-08-22T09:56:18.272Z,27.99
2022-08-22T09:57:22.476Z,25.95
2022-08-22T09:58:24.688Z,23.86
2022-08-22T09:59:28.384Z,21.25
2022-08-22T10:00:30.758Z,26.44
2022-08-22T10:01:33.450Z,29.24
2022-08-22T10:02:36.113Z,27.19
2022-08-22T10:03:38.041Z,36.55
2022-08-22T10:04:40.087Z,26.87
2022-08-22T10:05:44.941Z,25.76
2022-08-22T10:06:47.193Z,22.04
2022-08-22T10:07:51.486Z,24.38
2022-08-22T10:08:54.767Z,24.72
2022-08-22T10:09:57.526Z,27.62
2022-08-22T10:11:01.737Z,27.73
2022-08-22T10:12:03.691Z,20.81
2022-08-22T10:13:10.565Z,25.54
2022-08-22T10:14:09.434Z,21.06
2022-08-22T10:15:11.381Z,27.72
2022-08-22T10:16:13.747Z,26.71
2022-08-22T10:17:15.703Z,38.43
2022-08-22T10:18:19.516Z,36.84
2022-08-22T10:19:21.858Z,31.36
2022-08-22T10:20:27.759Z,29.02
2022-08-22T10:21:29.961Z,35.84
2022-08-22T10:22:32.107Z,34.45
2022-08-22T10:23:34.168Z,25.85
2022-08-22T10:24:43.750Z,39.68
2022-08-22T10:25:42.226Z,41.95
2022-08-22T10:26:44.527Z,28.47
2022-08-22T10:27:46.376Z,28.74
2022-08-22T10:28:48.333Z,23.89
2022-08-22T10:29:50.898Z,36.33
2022-08-22T10:30:52.858Z,30.78
2022-08-22T10:31:58.705Z,43.03
2022-08-22T10:32:58.652Z,54.58
2022-08-22T10:34:00.759Z,45.58
2022-08-22T10:35:03.136Z,24.87
2022-08-22T10:36:07.115Z,32.25
2022-08-22T10:37:10.929Z,32.60
2022-08-22T10:38:12.777Z,22.59
2022-08-22T10:39:14.711Z,23.95
2022-08-22T10:40:19.457Z,22.53
2022-08-22T10:41:22.615Z,24.05
2022-08-22T10:42:24.561Z,32.41
2022-08-22T10:43:28.955Z,44.48
2022-08-22T10:44:31.236Z,40.03
2022-08-22T10:45:36.048Z,26.06
2022-08-22T10:46:37.231Z,30.35
2022-08-22T10:47:40.812Z,22.81
2022-08-22T10:48:43.073Z,23.61
2022-08-22T10:49:45.040Z,20.23
2022-08-22T10:50:47.469Z,23.50
2022-08-22T10:51:49.327Z,18.37
2022-08-22T10:52:51.167Z,20.65
2022-08-22T10:53:53.030Z,23.38
2022-08-22T10:54:56.743Z,21.05
2022-08-22T10:55:58.611Z,16.59
2022-08-22T10:57:00.740Z,16.30
2022-08-22T10:58:02.807Z,24.78
2022-08-22T10:59:05.775Z,18.17
2022-08-22T11:00:08.181Z,20.27
2022-08-22T11:01:38.594Z,21.02
2022-08-22T11:02:13.789Z,18.31
2022-08-22T11:03:21.292Z,19.69
2022-08-22T11:04:19.396Z,23.69
2022-08-22T11:05:23.160Z,20.77
2022-08-22T11:06:26.675Z,23.35
2022-08-22T11:07:28.506Z,19.57
2022-08-22T11:08:30.335Z,24.55
2022-08-22T11:09:36.274Z,18.78
2022-08-22T11:10:37.861Z,26.19
2022-08-22T11:11:39.714Z,22.34
2022-08-22T11:12:43.895Z,26.79
2022-08-22T11:13:46.504Z,18.02
2022-08-22T11:14:50.290Z,18.68
2022-08-22T11:15:52.234Z,20.76
2022-08-22T11:16:55.081Z,22.09
2022-08-22T11:17:57.466Z,23.49
2022-08-22T11:19:02.950Z,24.07
2022-08-22T11:20:03.327Z,20.59
2022-08-22T11:21:07.345Z,21.09
2022-08-22T11:22:10.033Z,21.38
2022-08-22T11:23:12.669Z,17.36
2022-08-22T11:24:17.293Z,21.49
2022-08-22T11:25:26.900Z,14.55
2022-08-22T11:26:30.120Z,24.69
2022-08-22T11:27:37.691Z,17.55
2022-08-22T11:28:29.831Z,18.21
2022-08-22T11:29:33.182Z,29.96
2022-08-22T11:30:36.419Z,17.74
2022-08-22T11:31:40.070Z,22.55
2022-08-22T11:32:44.059Z,19.29
2022-08-22T11:33:47.038Z,19.51
2022-08-22T11:34:49.606Z,18.01
2022-08-22T11:35:52.223Z,19.12
2022-08-22T11:36:54.248Z,21.19
2022-08-22T11:37:56.526Z,21.81
2022-08-22T11:38:58.582Z,24.87
2022-08-22T11:40:02.475Z,23.36
2022-08-22T11:41:04.391Z,20.81
2022-08-22T11:42:07.597Z,19.53
2022-08-22T11:43:17.962Z,19.17
2022-08-22T11:44:13.126Z,14.96
2022-08-22T11:45:16.400Z,18.76
2022-08-22T11:46:20.030Z,19.88
2022-08-22T11:47:26.561Z,18.39
2022-08-22T11:48:25.842Z,23.44
2022-08-22T11:49:27.698Z,15.50
2022-08-22T11:50:31.997Z,20.43
2022-08-22T11:51:35.688Z,19.34
2022-08-22T11:52:37.774Z,17.98
2022-08-22T11:53:39.653Z,16.63
2022-08-22T11:54:42.034Z,18.44
2022-08-22T11:55:44.059Z,16.99
2022-08-22T11:56:46.214Z,17.31
2022-08-22T11:57:49.267Z,15.89
2022-08-22T11:58:51.194Z,14.15
2022-08-22T11:59:53.250Z,24.17
2022-08-22T12:00:55.837Z,16.95
2022-08-22T12:01:57.822Z,14.71
2022-08-22T12:03:01.183Z,13.78
2022-08-22T12:04:03.622Z,18.39
2022-08-22T12:05:05.583Z,15.69
2022-08-22T12:06:07.868Z,17.50
2022-08-22T12:07:09.782Z,17.26
2022-08-22T12:08:11.747Z,18.62
2022-08-22T12:09:13.689Z,18.53
2022-08-22T12:10:16.559Z,20.54
2022-08-22T12:11:18.431Z,22.43
2022-08-22T12:12:20.474Z,15.49
2022-08-22T12:13:34.751Z,19.52
2022-08-22T12:14:27.431Z,19.22
2022-08-22T12:15:30.634Z,22.25
2022-08-22T12:16:34.778Z,21.18
2022-08-22T12:17:55.470Z,22.80
2022-08-22T12:18:40.493Z,17.78
2022-08-22T12:19:59.078Z,23.47
2022-08-22T12:20:46.640Z,15.87
2022-08-22T12:21:49.735Z,18.71
2022-08-22T12:22:51.671Z,19.32
2022-08-22T12:23:53.656Z,16.19
2022-08-22T12:24:57.781Z,20.35
2022-08-22T12:25:59.271Z,18.23
2022-08-22T12:27:01.838Z,19.21
2022-08-22T12:29:33.454Z,16.46
2022-08-22T12:30:30.726Z,20.33
2022-08-22T12:31:33.210Z,19.01
2022-08-22T12:32:35.150Z,21.52
2022-08-22T12:33:37.510Z,19.87
2022-08-22T12:34:39.466Z,17.11
2022-08-22T12:35:43.155Z,18.28
2022-08-22T12:36:45.639Z,15.38
2022-08-22T12:37:52.680Z,19.15
2022-08-22T12:38:53.016Z,20.41
2022-08-22T12:39:55.010Z,20.35
2022-08-22T12:40:57.442Z,15.89
2022-08-22T12:42:00.240Z,19.79
2022-08-22T12:43:04.001Z,22.18
2022-08-22T12:44:07.765Z,17.69
2022-08-22T12:45:11.602Z,18.08
2022-08-22T12:46:14.684Z,19.50
2022-08-22T12:47:17.320Z,19.89
2022-08-22T12:48:19.519Z,15.29
2022-08-22T12:49:21.859Z,22.24
2022-08-22T12:50:24.037Z,23.55
2022-08-22T12:51:25.966Z,15.31
2022-08-22T12:52:29.762Z,18.87
2022-08-22T12:53:31.717Z,18.12
2022-08-22T12:54:33.673Z,18.55
2022-08-22T12:55:35.628Z,22.32
2022-08-22T12:56:37.882Z,13.17
2022-08-22T12:57:41.677Z,19.46
2022-08-22T12:58:45.067Z,20.62
2022-08-22T12:59:48.863Z,25.55
2022-08-22T13:00:52.537Z,15.61
2022-08-22T13:01:55.734Z,18.83
2022-08-22T13:02:58.070Z,13.77
2022-08-22T13:04:00.250Z,19.65
2022-08-22T13:05:02.203Z,13.69
2022-08-22T13:06:04.367Z,15.02
2022-08-22T13:07:08.156Z,15.98
2022-08-22T13:08:10.121Z,17.27
2022-08-22T13:09:12.070Z,19.87
2022-08-22T13:10:17.421Z,19.91
2022-08-22T13:11:23.225Z,21.37
2022-08-22T13:12:24.511Z,17.85
2022-08-22T13:13:31.684Z,14.64
2022-08-22T13:14:32.372Z,18.51
2022-08-22T13:15:34.357Z,17.77
2022-08-22T13:16:38.466Z,17.59
2022-08-22T13:17:42.328Z,13.78
2022-08-22T13:18:45.198Z,23.07
2022-08-22T13:19:47.251Z,18.61
2022-08-22T13:20:49.350Z,16.28
2022-08-22T13:21:52.557Z,20.45
2022-08-22T13:22:54.595Z,17.30